sensor_id;sensor_type;location;lat;lon;timestamp;P1;durP1;ratioP1;P2;durP2;ratioP2
41952;SDS011;63613;28.200;112.870;2023-09-19T00:00:42;16.98;;;12.70;;
41952;SDS011;63613;28.200;112.870;2023-09-19T00:03:09;17.45;;;13.38;;
41952;SDS011;63613;28.200;112.870;2023-09-19T00:05:37;16.52;;;13.55;;
41952;SDS011;63613;28.200;112.870;2023-09-19T00:08:05;18.65;;;13.38;;
41952;SDS011;63613;28.200;112.870;2023-09-19T00:10:33;19.15;;;13.63;;
41952;SDS011;63613;28.200;112.870;2023-09-19T00:13:05;16.60;;;12.93;;
41952;SDS011;63613;28.200;112.870;2023-09-19T00:15:39;16.92;;;13.05;;
41952;SDS011;63613;28.200;112.870;2023-09-19T00:18:25;15.90;;;12.65;;
41952;SDS011;63613;28.200;112.870;2023-09-19T00:20:58;15.40;;;12.93;;
41952;SDS011;63613;28.200;112.870;2023-09-19T00:23:24;15.40;;;12.55;;
41952;SDS011;63613;28.200;112.870;2023-09-19T00:25:52;19.55;;;13.63;;
41952;SDS011;63613;28.200;112.870;2023-09-19T00:28:22;16.55;;;13.13;;
41952;SDS011;63613;28.200;112.870;2023-09-19T00:30:49;17.33;;;13.07;;
41952;SDS011;63613;28.200;112.870;2023-09-19T00:33:16;16.13;;;12.55;;
41952;SDS011;63613;28.200;112.870;2023-09-19T00:35:47;18.55;;;13.38;;
41952;SDS011;63613;28.200;112.870;2023-09-19T00:38:14;16.40;;;11.98;;
41952;SDS011;63613;28.200;112.870;2023-09-19T00:40:48;18.00;;;13.18;;
41952;SDS011;63613;28.200;112.870;2023-09-19T00:43:16;15.50;;;12.90;;
41952;SDS011;63613;28.200;112.870;2023-09-19T00:45:44;16.40;;;12.23;;
41952;SDS011;63613;28.200;112.870;2023-09-19T00:48:17;13.27;;;11.60;;
41952;SDS011;63613;28.200;112.870;2023-09-19T00:50:47;16.50;;;12.37;;
41952;SDS011;63613;28.200;112.870;2023-09-19T00:53:15;17.00;;;13.20;;
41952;SDS011;63613;28.200;112.870;2023-09-19T00:55:46;15.50;;;12.68;;
41952;SDS011;63613;28.200;112.870;2023-09-19T00:58:17;16.55;;;13.30;;
41952;SDS011;63613;28.200;112.870;2023-09-19T01:00:46;16.42;;;12.55;;
41952;SDS011;63613;28.200;112.870;2023-09-19T01:03:17;16.73;;;13.23;;
41952;SDS011;63613;28.200;112.870;2023-09-19T01:05:43;18.63;;;12.80;;
41952;SDS011;63613;28.200;112.870;2023-09-19T01:08:10;14.13;;;12.38;;
41952;SDS011;63613;28.200;112.870;2023-09-19T01:10:38;15.70;;;12.30;;
41952;SDS011;63613;28.200;112.870;2023-09-19T01:13:27;15.18;;;11.73;;
41952;SDS011;63613;28.200;112.870;2023-09-19T01:16:14;15.43;;;12.77;;
41952;SDS011;63613;28.200;112.870;2023-09-19T01:18:58;16.10;;;13.20;;
41952;SDS011;63613;28.200;112.870;2023-09-19T01:27:39;13.05;;;11.50;;
41952;SDS011;63613;28.200;112.870;2023-09-19T01:30:32;16.27;;;12.10;;
41952;SDS011;63613;28.200;112.870;2023-09-19T01:33:05;18.85;;;12.27;;
41952;SDS011;63613;28.200;112.870;2023-09-19T01:35:33;16.40;;;11.95;;
41952;SDS011;63613;28.200;112.870;2023-09-19T01:38:06;13.63;;;12.02;;
41952;SDS011;63613;28.200;112.870;2023-09-19T01:40:57;14.13;;;11.50;;
41952;SDS011;63613;28.200;112.870;2023-09-19T01:43:41;13.95;;;11.60;;
41952;SDS011;63613;28.200;112.870;2023-09-19T01:46:19;13.48;;;11.90;;
41952;SDS011;63613;28.200;112.870;2023-09-19T01:51:53;13.82;;;10.98;;
41952;SDS011;63613;28.200;112.870;2023-09-19T01:54:46;13.27;;;10.55;;
41952;SDS011;63613;28.200;112.870;2023-09-19T01:57:41;11.10;;;9.98;;
41952;SDS011;63613;28.200;112.870;2023-09-19T02:00:09;13.48;;;10.65;;
41952;SDS011;63613;28.200;112.870;2023-09-19T02:02:38;10.77;;;9.50;;
41952;SDS011;63613;28.200;112.870;2023-09-19T02:05:09;11.25;;;9.98;;
41952;SDS011;63613;28.200;112.870;2023-09-19T02:07:38;14.80;;;10.75;;
41952;SDS011;63613;28.200;112.870;2023-09-19T02:10:08;16.02;;;10.50;;
41952;SDS011;63613;28.200;112.870;2023-09-19T02:12:37;12.02;;;9.60;;
41952;SDS011;63613;28.200;112.870;2023-09-19T02:15:27;10.18;;;9.00;;
41952;SDS011;63613;28.200;112.870;2023-09-19T02:17:53;12.73;;;9.80;;
41952;SDS011;63613;28.200;112.870;2023-09-19T02:20:22;11.07;;;9.07;;
41952;SDS011;63613;28.200;112.870;2023-09-19T02:22:48;11.02;;;9.75;;
41952;SDS011;63613;28.200;112.870;2023-09-19T02:25:18;11.55;;;9.48;;
41952;SDS011;63613;28.200;112.870;2023-09-19T02:27:45;10.02;;;8.77;;
41952;SDS011;63613;28.200;112.870;2023-09-19T02:30:33;9.47;;;8.50;;
41952;SDS011;63613;28.200;112.870;2023-09-19T02:33:07;12.95;;;8.30;;
41952;SDS011;63613;28.200;112.870;2023-09-19T02:35:34;9.63;;;8.20;;
41952;SDS011;63613;28.200;112.870;2023-09-19T02:38:01;11.00;;;9.52;;
41952;SDS011;63613;28.200;112.870;2023-09-19T02:40:31;10.32;;;8.18;;
41952;SDS011;63613;28.200;112.870;2023-09-19T02:43:01;10.15;;;8.73;;
41952;SDS011;63613;28.200;112.870;2023-09-19T02:45:28;9.60;;;8.60;;
41952;SDS011;63613;28.200;112.870;2023-09-19T02:47:55;9.82;;;8.77;;
41952;SDS011;63613;28.200;112.870;2023-09-19T02:50:22;11.52;;;8.85;;
41952;SDS011;63613;28.200;112.870;2023-09-19T02:52:49;11.40;;;8.57;;
41952;SDS011;63613;28.200;112.870;2023-09-19T02:55:17;8.95;;;8.05;;
41952;SDS011;63613;28.200;112.870;2023-09-19T03:00:16;10.07;;;8.13;;
41952;SDS011;63613;28.200;112.870;2023-09-19T03:02:47;11.35;;;7.88;;
41952;SDS011;63613;28.200;112.870;2023-09-19T03:05:15;9.25;;;7.95;;
41952;SDS011;63613;28.200;112.870;2023-09-19T03:07:43;9.77;;;8.27;;
41952;SDS011;63613;28.200;112.870;2023-09-19T03:10:12;8.90;;;7.90;;
41952;SDS011;63613;28.200;112.870;2023-09-19T03:12:40;9.07;;;7.90;;
41952;SDS011;63613;28.200;112.870;2023-09-19T03:15:07;8.85;;;7.93;;
41952;SDS011;63613;28.200;112.870;2023-09-19T03:17:35;7.75;;;6.95;;
41952;SDS011;63613;28.200;112.870;2023-09-19T03:20:03;9.32;;;7.70;;
41952;SDS011;63613;28.200;112.870;2023-09-19T03:22:34;9.32;;;7.30;;
41952;SDS011;63613;28.200;112.870;2023-09-19T03:25:15;9.63;;;7.85;;
41952;SDS011;63613;28.200;112.870;2023-09-19T03:27:45;8.50;;;7.65;;
41952;SDS011;63613;28.200;112.870;2023-09-19T03:30:12;7.97;;;7.03;;
41952;SDS011;63613;28.200;112.870;2023-09-19T03:32:45;8.00;;;6.97;;
41952;SDS011;63613;28.200;112.870;2023-09-19T03:35:15;9.43;;;7.15;;
41952;SDS011;63613;28.200;112.870;2023-09-19T03:37:43;8.38;;;7.32;;
41952;SDS011;63613;28.200;112.870;2023-09-19T03:40:10;8.23;;;7.20;;
41952;SDS011;63613;28.200;112.870;2023-09-19T03:42:40;8.85;;;7.25;;
41952;SDS011;63613;28.200;112.870;2023-09-19T03:45:08;8.20;;;7.18;;
41952;SDS011;63613;28.200;112.870;2023-09-19T03:47:38;11.70;;;7.63;;
41952;SDS011;63613;28.200;112.870;2023-09-19T03:50:06;9.88;;;7.50;;
41952;SDS011;63613;28.200;112.870;2023-09-19T03:52:36;9.45;;;7.30;;
41952;SDS011;63613;28.200;112.870;2023-09-19T03:55:03;8.00;;;7.30;;
41952;SDS011;63613;28.200;112.870;2023-09-19T03:57:39;8.75;;;7.63;;
41952;SDS011;63613;28.200;112.870;2023-09-19T04:00:06;10.00;;;6.90;;
41952;SDS011;63613;28.200;112.870;2023-09-19T04:02:39;7.55;;;6.75;;
41952;SDS011;63613;28.200;112.870;2023-09-19T04:05:06;8.88;;;6.82;;
41952;SDS011;63613;28.200;112.870;2023-09-19T04:07:53;8.00;;;6.68;;
41952;SDS011;63613;28.200;112.870;2023-09-19T04:10:20;7.10;;;6.38;;
41952;SDS011;63613;28.200;112.870;2023-09-19T04:12:50;7.85;;;6.80;;
41952;SDS011;63613;28.200;112.870;2023-09-19T04:15:23;7.38;;;6.68;;
41952;SDS011;63613;28.200;112.870;2023-09-19T04:17:50;9.27;;;7.45;;
41952;SDS011;63613;28.200;112.870;2023-09-19T04:20:18;9.35;;;7.13;;
41952;SDS011;63613;28.200;112.870;2023-09-19T04:22:51;8.02;;;7.25;;
41952;SDS011;63613;28.200;112.870;2023-09-19T04:25:18;9.45;;;7.20;;
41952;SDS011;63613;28.200;112.870;2023-09-19T04:27:49;7.82;;;6.68;;
41952;SDS011;63613;28.200;112.870;2023-09-19T04:30:19;7.32;;;6.63;;
41952;SDS011;63613;28.200;112.870;2023-09-19T04:32:46;7.55;;;6.78;;
41952;SDS011;63613;28.200;112.870;2023-09-19T04:35:16;8.27;;;6.47;;
41952;SDS011;63613;28.200;112.870;2023-09-19T04:37:42;7.18;;;6.22;;
41952;SDS011;63613;28.200;112.870;2023-09-19T04:40:09;8.45;;;6.68;;
41952;SDS011;63613;28.200;112.870;2023-09-19T04:42:45;6.75;;;6.07;;
41952;SDS011;63613;28.200;112.870;2023-09-19T04:45:26;7.88;;;7.18;;
41952;SDS011;63613;28.200;112.870;2023-09-19T04:47:53;7.32;;;6.05;;
41952;SDS011;63613;28.200;112.870;2023-09-19T04:50:21;8.80;;;6.55;;
41952;SDS011;63613;28.200;112.870;2023-09-19T04:52:50;7.05;;;6.38;;
41952;SDS011;63613;28.200;112.870;2023-09-19T04:55:17;7.43;;;6.38;;
41952;SDS011;63613;28.200;112.870;2023-09-19T04:57:49;7.07;;;6.20;;
41952;SDS011;63613;28.200;112.870;2023-09-19T05:00:19;7.85;;;6.57;;
41952;SDS011;63613;28.200;112.870;2023-09-19T05:03:05;7.68;;;6.63;;
41952;SDS011;63613;28.200;112.870;2023-09-19T05:05:34;7.63;;;5.97;;
41952;SDS011;63613;28.200;112.870;2023-09-19T05:08:05;6.75;;;6.10;;
41952;SDS011;63613;28.200;112.870;2023-09-19T05:10:34;7.53;;;6.25;;
41952;SDS011;63613;28.200;112.870;2023-09-19T05:13:04;9.27;;;5.95;;
41952;SDS011;63613;28.200;112.870;2023-09-19T05:15:33;7.78;;;6.55;;
41952;SDS011;63613;28.200;112.870;2023-09-19T05:18:03;7.43;;;6.30;;
41952;SDS011;63613;28.200;112.870;2023-09-19T05:20:32;7.95;;;6.78;;
41952;SDS011;63613;28.200;112.870;2023-09-19T05:23:02;10.30;;;7.20;;
41952;SDS011;63613;28.200;112.870;2023-09-19T05:25:35;9.50;;;7.13;;
41952;SDS011;63613;28.200;112.870;2023-09-19T05:28:02;7.50;;;6.03;;
41952;SDS011;63613;28.200;112.870;2023-09-19T05:30:31;8.27;;;6.85;;
41952;SDS011;63613;28.200;112.870;2023-09-19T05:32:58;11.18;;;7.60;;
41952;SDS011;63613;28.200;112.870;2023-09-19T05:35:29;7.95;;;6.72;;
41952;SDS011;63613;28.200;112.870;2023-09-19T05:37:57;8.98;;;6.80;;
41952;SDS011;63613;28.200;112.870;2023-09-19T05:40:45;8.80;;;6.63;;
41952;SDS011;63613;28.200;112.870;2023-09-19T05:43:12;8.70;;;6.68;;
41952;SDS011;63613;28.200;112.870;2023-09-19T05:45:40;9.55;;;7.55;;
41952;SDS011;63613;28.200;112.870;2023-09-19T05:48:09;10.55;;;7.35;;
41952;SDS011;63613;28.200;112.870;2023-09-19T05:50:38;10.02;;;7.18;;
41952;SDS011;63613;28.200;112.870;2023-09-19T05:53:08;9.18;;;7.15;;
41952;SDS011;63613;28.200;112.870;2023-09-19T05:55:38;7.97;;;6.55;;
41952;SDS011;63613;28.200;112.870;2023-09-19T05:58:06;7.65;;;6.43;;
41952;SDS011;63613;28.200;112.870;2023-09-19T06:00:34;9.60;;;6.57;;
41952;SDS011;63613;28.200;112.870;2023-09-19T06:03:01;9.40;;;6.93;;
41952;SDS011;63613;28.200;112.870;2023-09-19T06:05:28;11.75;;;7.93;;
41952;SDS011;63613;28.200;112.870;2023-09-19T06:07:58;9.02;;;7.38;;
41952;SDS011;63613;28.200;112.870;2023-09-19T06:10:26;11.93;;;7.22;;
41952;SDS011;63613;28.200;112.870;2023-09-19T06:12:57;11.13;;;8.23;;
41952;SDS011;63613;28.200;112.870;2023-09-19T06:15:45;11.15;;;7.60;;
41952;SDS011;63613;28.200;112.870;2023-09-19T06:18:13;10.90;;;7.93;;
41952;SDS011;63613;28.200;112.870;2023-09-19T06:20:47;8.85;;;7.45;;
41952;SDS011;63613;28.200;112.870;2023-09-19T06:23:16;10.52;;;7.63;;
41952;SDS011;63613;28.200;112.870;2023-09-19T06:25:43;9.82;;;7.93;;
41952;SDS011;63613;28.200;112.870;2023-09-19T06:28:10;9.10;;;7.28;;
41952;SDS011;63613;28.200;112.870;2023-09-19T06:30:43;9.35;;;6.78;;
41952;SDS011;63613;28.200;112.870;2023-09-19T06:33:11;8.85;;;7.57;;
41952;SDS011;63613;28.200;112.870;2023-09-19T06:35:38;8.38;;;7.45;;
41952;SDS011;63613;28.200;112.870;2023-09-19T06:38:25;10.50;;;7.80;;
41952;SDS011;63613;28.200;112.870;2023-09-19T06:40:53;10.30;;;7.25;;
41952;SDS011;63613;28.200;112.870;2023-09-19T06:43:22;9.70;;;7.90;;
41952;SDS011;63613;28.200;112.870;2023-09-19T06:45:49;8.25;;;7.45;;
41952;SDS011;63613;28.200;112.870;2023-09-19T06:48:17;10.48;;;7.50;;
41952;SDS011;63613;28.200;112.870;2023-09-19T06:50:44;9.52;;;6.70;;
41952;SDS011;63613;28.200;112.870;2023-09-19T06:53:12;8.70;;;7.25;;
41952;SDS011;63613;28.200;112.870;2023-09-19T06:55:40;9.30;;;7.45;;
41952;SDS011;63613;28.200;112.870;2023-09-19T06:58:09;7.95;;;6.97;;
41952;SDS011;63613;28.200;112.870;2023-09-19T07:00:36;8.57;;;7.68;;
41952;SDS011;63613;28.200;112.870;2023-09-19T07:03:06;7.95;;;7.13;;
41952;SDS011;63613;28.200;112.870;2023-09-19T07:05:37;9.13;;;7.45;;
41952;SDS011;63613;28.200;112.870;2023-09-19T07:08:08;8.15;;;6.85;;
41952;SDS011;63613;28.200;112.870;2023-09-19T07:10:55;8.85;;;7.45;;
41952;SDS011;63613;28.200;112.870;2023-09-19T07:13:22;9.75;;;7.35;;
41952;SDS011;63613;28.200;112.870;2023-09-19T07:15:52;8.25;;;7.38;;
41952;SDS011;63613;28.200;112.870;2023-09-19T07:18:19;7.45;;;6.65;;
41952;SDS011;63613;28.200;112.870;2023-09-19T07:20:46;8.27;;;7.30;;
41952;SDS011;63613;28.200;112.870;2023-09-19T07:23:20;7.97;;;7.15;;
41952;SDS011;63613;28.200;112.870;2023-09-19T07:25:48;7.03;;;6.33;;
41952;SDS011;63613;28.200;112.870;2023-09-19T07:28:35;8.88;;;7.40;;
41952;SDS011;63613;28.200;112.870;2023-09-19T07:31:02;7.70;;;6.85;;
41952;SDS011;63613;28.200;112.870;2023-09-19T07:33:30;7.60;;;6.80;;
41952;SDS011;63613;28.200;112.870;2023-09-19T07:35:57;8.02;;;6.68;;
41952;SDS011;63613;28.200;112.870;2023-09-19T07:38:26;7.25;;;6.35;;
41952;SDS011;63613;28.200;112.870;2023-09-19T07:40:59;11.07;;;7.53;;
41952;SDS011;63613;28.200;112.870;2023-09-19T07:43:27;7.35;;;6.50;;
41952;SDS011;63613;28.200;112.870;2023-09-19T07:45:54;8.85;;;6.88;;
41952;SDS011;63613;28.200;112.870;2023-09-19T07:48:21;7.43;;;6.72;;
41952;SDS011;63613;28.200;112.870;2023-09-19T07:50:49;9.60;;;7.25;;
41952;SDS011;63613;28.200;112.870;2023-09-19T07:53:18;7.10;;;6.28;;
41952;SDS011;63613;28.200;112.870;2023-09-19T07:55:45;7.45;;;6.53;;
41952;SDS011;63613;28.200;112.870;2023-09-19T07:58:13;7.78;;;6.82;;
41952;SDS011;63613;28.200;112.870;2023-09-19T08:00:41;7.63;;;6.93;;
41952;SDS011;63613;28.200;112.870;2023-09-19T08:03:08;7.50;;;6.70;;
41952;SDS011;63613;28.200;112.870;2023-09-19T08:05:40;9.10;;;6.80;;
41952;SDS011;63613;28.200;112.870;2023-09-19T08:08:08;8.48;;;6.93;;
41952;SDS011;63613;28.200;112.870;2023-09-19T08:10:40;8.27;;;6.45;;
41952;SDS011;63613;28.200;112.870;2023-09-19T08:13:08;8.23;;;7.00;;
41952;SDS011;63613;28.200;112.870;2023-09-19T08:15:42;7.45;;;6.63;;
41952;SDS011;63613;28.200;112.870;2023-09-19T08:18:09;8.63;;;6.90;;
41952;SDS011;63613;28.200;112.870;2023-09-19T08:20:39;9.07;;;7.53;;
41952;SDS011;63613;28.200;112.870;2023-09-19T08:23:07;7.53;;;6.47;;
41952;SDS011;63613;28.200;112.870;2023-09-19T08:25:34;7.50;;;6.80;;
41952;SDS011;63613;28.200;112.870;2023-09-19T08:28:04;10.15;;;7.13;;
41952;SDS011;63613;28.200;112.870;2023-09-19T08:30:34;8.55;;;6.90;;
41952;SDS011;63613;28.200;112.870;2023-09-19T08:33:03;7.00;;;6.38;;
41952;SDS011;63613;28.200;112.870;2023-09-19T08:35:30;6.88;;;6.18;;
41952;SDS011;63613;28.200;112.870;2023-09-19T08:37:57;8.23;;;6.70;;
41952;SDS011;63613;28.200;112.870;2023-09-19T08:40:43;7.47;;;6.68;;
41952;SDS011;63613;28.200;112.870;2023-09-19T08:43:10;8.32;;;7.38;;
41952;SDS011;63613;28.200;112.870;2023-09-19T08:45:38;7.80;;;7.13;;
41952;SDS011;63613;28.200;112.870;2023-09-19T08:48:17;8.27;;;7.35;;
41952;SDS011;63613;28.200;112.870;2023-09-19T08:50:51;8.43;;;7.30;;
41952;SDS011;63613;28.200;112.870;2023-09-19T08:56:03;12.00;;;8.43;;
41952;SDS011;63613;28.200;112.870;2023-09-19T08:58:39;9.00;;;8.10;;
41952;SDS011;63613;28.200;112.870;2023-09-19T09:01:15;12.77;;;9.27;;
41952;SDS011;63613;28.200;112.870;2023-09-19T09:03:42;9.43;;;7.47;;
41952;SDS011;63613;28.200;112.870;2023-09-19T09:06:14;10.90;;;7.55;;
41952;SDS011;63613;28.200;112.870;2023-09-19T09:08:42;11.05;;;8.00;;
41952;SDS011;63613;28.200;112.870;2023-09-19T09:11:13;12.38;;;8.63;;
41952;SDS011;63613;28.200;112.870;2023-09-19T09:13:45;11.32;;;8.02;;
41952;SDS011;63613;28.200;112.870;2023-09-19T09:16:14;12.13;;;8.68;;
41952;SDS011;63613;28.200;112.870;2023-09-19T09:18:48;14.75;;;9.15;;
41952;SDS011;63613;28.200;112.870;2023-09-19T09:21:18;11.30;;;7.93;;
41952;SDS011;63613;28.200;112.870;2023-09-19T09:23:47;9.15;;;8.00;;
41952;SDS011;63613;28.200;112.870;2023-09-19T09:29:58;12.85;;;9.38;;
41952;SDS011;63613;28.200;112.870;2023-09-19T09:32:27;12.15;;;8.75;;
41952;SDS011;63613;28.200;112.870;2023-09-19T09:37:46;9.98;;;7.78;;
41952;SDS011;63613;28.200;112.870;2023-09-19T09:40:32;10.85;;;9.40;;
41952;SDS011;63613;28.200;112.870;2023-09-19T09:46:16;11.65;;;9.05;;
41952;SDS011;63613;28.200;112.870;2023-09-19T09:48:57;9.55;;;8.50;;
41952;SDS011;63613;28.200;112.870;2023-09-19T09:52:00;9.98;;;8.63;;
41952;SDS011;63613;28.200;112.870;2023-09-19T09:55:02;10.27;;;9.18;;
41952;SDS011;63613;28.200;112.870;2023-09-19T09:57:33;12.63;;;9.55;;
41952;SDS011;63613;28.200;112.870;2023-09-19T10:00:00;10.18;;;8.55;;
41952;SDS011;63613;28.200;112.870;2023-09-19T10:02:40;10.25;;;8.98;;
41952;SDS011;63613;28.200;112.870;2023-09-19T10:05:17;10.05;;;8.68;;
41952;SDS011;63613;28.200;112.870;2023-09-19T10:11:33;11.52;;;8.70;;
41952;SDS011;63613;28.200;112.870;2023-09-19T10:14:05;13.45;;;9.63;;
41952;SDS011;63613;28.200;112.870;2023-09-19T10:16:54;13.18;;;9.45;;
41952;SDS011;63613;28.200;112.870;2023-09-19T10:19:37;11.77;;;8.60;;
41952;SDS011;63613;28.200;112.870;2023-09-19T10:22:12;14.25;;;8.77;;
41952;SDS011;63613;28.200;112.870;2023-09-19T10:24:48;13.75;;;9.18;;
41952;SDS011;63613;28.200;112.870;2023-09-19T10:27:21;13.65;;;9.57;;
41952;SDS011;63613;28.200;112.870;2023-09-19T10:29:52;15.50;;;9.85;;
41952;SDS011;63613;28.200;112.870;2023-09-19T10:32:26;15.45;;;9.52;;
41952;SDS011;63613;28.200;112.870;2023-09-19T10:35:04;13.02;;;8.65;;
41952;SDS011;63613;28.200;112.870;2023-09-19T10:37:36;14.23;;;9.85;;
41952;SDS011;63613;28.200;112.870;2023-09-19T10:40:10;12.90;;;8.35;;
41952;SDS011;63613;28.200;112.870;2023-09-19T10:43:05;12.07;;;9.18;;
41952;SDS011;63613;28.200;112.870;2023-09-19T10:45:47;14.18;;;9.48;;
41952;SDS011;63613;28.200;112.870;2023-09-19T10:48:26;14.33;;;9.00;;
41952;SDS011;63613;28.200;112.870;2023-09-19T10:51:09;13.25;;;9.05;;
41952;SDS011;63613;28.200;112.870;2023-09-19T10:56:59;12.68;;;9.38;;
41952;SDS011;63613;28.200;112.870;2023-09-19T10:59:30;14.00;;;9.48;;
41952;SDS011;63613;28.200;112.870;2023-09-19T11:02:23;12.20;;;9.73;;
41952;SDS011;63613;28.200;112.870;2023-09-19T11:04:52;12.40;;;9.50;;
41952;SDS011;63613;28.200;112.870;2023-09-19T11:07:57;15.10;;;9.82;;
41952;SDS011;63613;28.200;112.870;2023-09-19T11:10:44;11.45;;;9.88;;
41952;SDS011;63613;28.200;112.870;2023-09-19T11:13:31;12.05;;;9.82;;
41952;SDS011;63613;28.200;112.870;2023-09-19T11:16:03;12.45;;;9.70;;
41952;SDS011;63613;28.200;112.870;2023-09-19T11:27:11;14.30;;;9.40;;
41952;SDS011;63613;28.200;112.870;2023-09-19T11:29:43;11.82;;;9.25;;
41952;SDS011;63613;28.200;112.870;2023-09-19T11:49:29;10.65;;;9.18;;
41952;SDS011;63613;28.200;112.870;2023-09-19T11:51:58;12.25;;;9.15;;
41952;SDS011;63613;28.200;112.870;2023-09-19T11:54:27;11.52;;;9.15;;
41952;SDS011;63613;28.200;112.870;2023-09-19T11:57:00;12.00;;;8.65;;
41952;SDS011;63613;28.200;112.870;2023-09-19T11:59:28;11.18;;;8.77;;
41952;SDS011;63613;28.200;112.870;2023-09-19T12:02:04;10.43;;;8.63;;
41952;SDS011;63613;28.200;112.870;2023-09-19T12:04:39;12.65;;;9.23;;
41952;SDS011;63613;28.200;112.870;2023-09-19T12:07:11;10.57;;;8.35;;
41952;SDS011;63613;28.200;112.870;2023-09-19T12:15:02;14.00;;;9.43;;
41952;SDS011;63613;28.200;112.870;2023-09-19T12:17:38;10.43;;;8.38;;
41952;SDS011;63613;28.200;112.870;2023-09-19T12:20:12;9.70;;;8.70;;
41952;SDS011;63613;28.200;112.870;2023-09-19T12:22:42;9.20;;;8.07;;
41952;SDS011;63613;28.200;112.870;2023-09-19T12:25:17;10.80;;;8.63;;
41952;SDS011;63613;28.200;112.870;2023-09-19T12:27:48;10.43;;;8.50;;
41952;SDS011;63613;28.200;112.870;2023-09-19T12:30:26;10.82;;;9.05;;
41952;SDS011;63613;28.200;112.870;2023-09-19T12:32:58;10.43;;;9.38;;
41952;SDS011;63613;28.200;112.870;2023-09-19T12:35:31;11.63;;;9.00;;
41952;SDS011;63613;28.200;112.870;2023-09-19T12:38:05;11.60;;;9.05;;
41952;SDS011;63613;28.200;112.870;2023-09-19T12:40:39;9.82;;;8.52;;
41952;SDS011;63613;28.200;112.870;2023-09-19T12:43:09;11.32;;;10.05;;
41952;SDS011;63613;28.200;112.870;2023-09-19T12:45:40;9.48;;;8.35;;
41952;SDS011;63613;28.200;112.870;2023-09-19T12:48:23;10.00;;;9.00;;
41952;SDS011;63613;28.200;112.870;2023-09-19T12:51:16;9.98;;;7.75;;
41952;SDS011;63613;28.200;112.870;2023-09-19T12:53:56;12.45;;;9.30;;
41952;SDS011;63613;28.200;112.870;2023-09-19T12:56:26;10.18;;;8.32;;
41952;SDS011;63613;28.200;112.870;2023-09-19T12:58:57;9.88;;;8.88;;
41952;SDS011;63613;28.200;112.870;2023-09-19T13:01:35;11.52;;;8.85;;
41952;SDS011;63613;28.200;112.870;2023-09-19T13:04:15;9.00;;;7.95;;
41952;SDS011;63613;28.200;112.870;2023-09-19T13:07:04;9.68;;;8.55;;
41952;SDS011;63613;28.200;112.870;2023-09-19T13:09:36;10.48;;;8.23;;
41952;SDS011;63613;28.200;112.870;2023-09-19T13:12:34;11.48;;;8.55;;
41952;SDS011;63613;28.200;112.870;2023-09-19T13:15:10;10.52;;;9.43;;
41952;SDS011;63613;28.200;112.870;2023-09-19T13:17:44;9.88;;;8.80;;
41952;SDS011;63613;28.200;112.870;2023-09-19T13:20:34;10.90;;;8.93;;
41952;SDS011;63613;28.200;112.870;2023-09-19T13:23:04;11.05;;;9.20;;
41952;SDS011;63613;28.200;112.870;2023-09-19T13:25:54;10.10;;;8.98;;
41952;SDS011;63613;28.200;112.870;2023-09-19T13:28:27;9.90;;;9.00;;
41952;SDS011;63613;28.200;112.870;2023-09-19T13:30:57;10.05;;;9.05;;
41952;SDS011;63613;28.200;112.870;2023-09-19T13:33:24;9.90;;;8.55;;
41952;SDS011;63613;28.200;112.870;2023-09-19T13:35:54;10.32;;;9.20;;
41952;SDS011;63613;28.200;112.870;2023-09-19T13:38:22;9.70;;;8.43;;
41952;SDS011;63613;28.200;112.870;2023-09-19T13:40:52;9.75;;;8.70;;
41952;SDS011;63613;28.200;112.870;2023-09-19T13:43:25;9.75;;;8.80;;
41952;SDS011;63613;28.200;112.870;2023-09-19T13:46:14;9.30;;;8.40;;
41952;SDS011;63613;28.200;112.870;2023-09-19T13:48:44;10.00;;;8.90;;
41952;SDS011;63613;28.200;112.870;2023-09-19T13:51:15;9.05;;;8.23;;
41952;SDS011;63613;28.200;112.870;2023-09-19T13:53:47;9.18;;;8.18;;
41952;SDS011;63613;28.200;112.870;2023-09-19T13:56:34;9.27;;;8.35;;
41952;SDS011;63613;28.200;112.870;2023-09-19T13:59:02;8.77;;;7.63;;
41952;SDS011;63613;28.200;112.870;2023-09-19T14:01:31;9.20;;;8.30;;
41952;SDS011;63613;28.200;112.870;2023-09-19T14:04:01;9.10;;;8.20;;
41952;SDS011;63613;28.200;112.870;2023-09-19T14:06:31;9.68;;;8.68;;
41952;SDS011;63613;28.200;112.870;2023-09-19T14:08:58;8.70;;;7.80;;
41952;SDS011;63613;28.200;112.870;2023-09-19T14:11:26;9.57;;;8.50;;
41952;SDS011;63613;28.200;112.870;2023-09-19T14:13:55;8.88;;;7.93;;
41952;SDS011;63613;28.200;112.870;2023-09-19T14:16:25;9.73;;;8.65;;
41952;SDS011;63613;28.200;112.870;2023-09-19T14:18:55;10.38;;;9.38;;
41952;SDS011;63613;28.200;112.870;2023-09-19T14:21:25;8.90;;;8.00;;
41952;SDS011;63613;28.200;112.870;2023-09-19T14:23:52;10.07;;;7.88;;
41952;SDS011;63613;28.200;112.870;2023-09-19T14:26:20;9.75;;;8.45;;
41952;SDS011;63613;28.200;112.870;2023-09-19T14:28:48;9.13;;;8.23;;
41952;SDS011;63613;28.200;112.870;2023-09-19T14:31:40;10.68;;;8.93;;
41952;SDS011;63613;28.200;112.870;2023-09-19T14:34:07;9.18;;;8.25;;
41952;SDS011;63613;28.200;112.870;2023-09-19T14:36:40;8.75;;;7.85;;
41952;SDS011;63613;28.200;112.870;2023-09-19T14:39:10;9.23;;;8.23;;
41952;SDS011;63613;28.200;112.870;2023-09-19T14:41:36;8.70;;;7.90;;
41952;SDS011;63613;28.200;112.870;2023-09-19T14:44:03;9.57;;;8.43;;
41952;SDS011;63613;28.200;112.870;2023-09-19T14:46:32;10.55;;;8.38;;
41952;SDS011;63613;28.200;112.870;2023-09-19T14:49:02;10.15;;;9.10;;
41952;SDS011;63613;28.200;112.870;2023-09-19T14:51:30;9.77;;;8.68;;
41952;SDS011;63613;28.200;112.870;2023-09-19T14:53:59;10.32;;;8.52;;
41952;SDS011;63613;28.200;112.870;2023-09-19T14:56:27;7.88;;;6.50;;
41952;SDS011;63613;28.200;112.870;2023-09-19T14:58:55;6.82;;;6.18;;
41952;SDS011;63613;28.200;112.870;2023-09-19T15:01:23;8.38;;;6.88;;
41952;SDS011;63613;28.200;112.870;2023-09-19T15:03:51;8.48;;;6.70;;
41952;SDS011;63613;28.200;112.870;2023-09-19T15:06:20;6.50;;;5.90;;
41952;SDS011;63613;28.200;112.870;2023-09-19T15:08:47;8.80;;;7.18;;
41952;SDS011;63613;28.200;112.870;2023-09-19T15:11:35;7.55;;;6.70;;
41952;SDS011;63613;28.200;112.870;2023-09-19T15:14:02;9.88;;;7.63;;
41952;SDS011;63613;28.200;112.870;2023-09-19T15:16:31;10.57;;;8.55;;
41952;SDS011;63613;28.200;112.870;2023-09-19T15:19:02;10.50;;;9.40;;
41952;SDS011;63613;28.200;112.870;2023-09-19T15:21:34;11.38;;;10.25;;
41952;SDS011;63613;28.200;112.870;2023-09-19T15:24:02;11.43;;;9.65;;
41952;SDS011;63613;28.200;112.870;2023-09-19T15:26:30;11.38;;;10.27;;
41952;SDS011;63613;28.200;112.870;2023-09-19T15:29:05;11.93;;;9.82;;
41952;SDS011;63613;28.200;112.870;2023-09-19T15:31:32;12.02;;;10.07;;
41952;SDS011;63613;28.200;112.870;2023-09-19T15:34:02;12.43;;;10.75;;
41952;SDS011;63613;28.200;112.870;2023-09-19T15:36:33;15.02;;;11.85;;
41952;SDS011;63613;28.200;112.870;2023-09-19T15:39:03;17.80;;;12.45;;
41952;SDS011;63613;28.200;112.870;2023-09-19T15:41:34;13.23;;;11.90;;
41952;SDS011;63613;28.200;112.870;2023-09-19T15:44:11;15.85;;;13.63;;